sim
Sign-in with your pilot id or email,
or register
Callsign
Passwort

Schedule Details

Flight Number: OEO4787
Departure: Tenerife North Airport (GCXO) at 17:00
Arrival: Munich Airport (EDDM) at 21:25

Weather Information
Getting current METAR information for GCXO 211830Z VRB02KT CAVOK 25/18 Q1019 NOSIG
Getting current METAR information for EDDM 211820Z 10001KT CAVOK 15/13 Q1016 NOSIG

Schedule Frequency

Route Map